Bookmark and Share
Track history (hours):
 

Modern Chance

Last reported at 2014-Apr-17 17:04 UTC. Time now 2014-Apr-19 09:28 UTC.
Position N 39°10' W 009°47'.

Length 164 m; beam 28 m.

Type: Cargo ship. MMSI: 636011177.

NotesDate/timePositionNaut miles runAvg speedWind from/ knotsBaromVisibWave heightAir tempDewpointWater temp
2014-Apr-17 17:04N 39°10' W 009°47'2715.4
2014-Apr-17 15:19N 38°44' W 009°50'1215.1
2014-Apr-17 14:32N 38°32' W 009°47'1515.3
2014-Apr-17 13:33N 38°17' W 009°43'1615.6
2014-Apr-17 12:33N 38°02' W 009°38'1615.6
2014-Apr-17 11:33N 37°47' W 009°34'1515.1
2014-Apr-17 10:33N 37°32' W 009°31'1715.4
2014-Apr-17 09:27N 37°16' W 009°25'1415.3
2014-Apr-17 08:33N 37°02' W 009°22'2114.3
2014-Apr-17 07:05N 36°44' W 009°09'815.5
2014-Apr-17 06:33N 36°42' W 008°59'1615.7
2014-Apr-17 05:33N 36°37' W 008°40'1615.7
2014-Apr-17 04:33N 36°32' W 008°22'1615.8
2014-Apr-17 03:33N 36°27' W 008°03'12115.1
2014-Apr-16 19:31N 35°57' W 005°37'1111.9
2014-Apr-16 18:33N 36°01' W 005°24'1414.1
2014-Apr-16 17:33N 36°04' W 005°07'23415.5
2014-Apr-16 02:32N 37°32' W 000°36'1815.9
2014-Apr-16 01:26N 37°46' W 000°23'1516.1
2014-Apr-16 00:31N 37°59' W 000°13'1715.9
2014-Apr-15 23:28N 38°13' W 000°02'4912.5
2014-Apr-15 19:33N 38°60' E 000°13'2215.4
2014-Apr-15 18:09N 39°19' E 000°00'65 3.7
2014-Apr-15 00:33N 39°19' E 001°24'1414.6
2014-Apr-14 23:34N 39°16' E 001°42'1615.6
2014-Apr-14 22:33N 39°12' E 002°02'1515.3
2014-Apr-14 21:33N 39°08' E 002°21'1615.9
2014-Apr-14 20:34N 39°05' E 002°41'1514.9
2014-Apr-14 19:33N 39°01' E 002°60'1615.6
2014-Apr-14 18:34N 38°58' E 003°19'1615.6
2014-Apr-14 17:33N 38°55' E 003°39'1515.3
2014-Apr-14 16:33N 38°51' E 003°58'31515.7
2014-Apr-13 20:29N 37°42' E 010°30'1314.6
2014-Apr-13 19:33N 37°39' E 010°47'1514.9
2014-Apr-13 18:31N 37°32' E 011°04'1515.1
2014-Apr-13 17:33N 37°25' E 011°20'1615.2
2014-Apr-13 16:29N 37°20' E 011°40'1815.3
2014-Apr-13 15:20N 37°15' E 012°01'8115.5
2014-Apr-13 10:05N 36°48' E 013°37'815.4
2014-Apr-13 09:33N 36°45' E 013°47'1615.7
2014-Apr-13 08:33N 36°40' E 014°05'1615.9
2014-Apr-13 07:33N 36°34' E 014°24'45514.7
2014-Apr-12 00:31N 37°04' E 023°51'1616.2
2014-Apr-11 23:33N 37°16' E 024°05'1616.2
2014-Apr-11 22:33N 37°28' E 024°18'1615.9
2014-Apr-11 21:33N 37°40' E 024°30'20014.8
2014-Apr-11 08:03N 40°28' E 026°50'  
2014-Apr-08 11:20N 40°29' E 026°54'19414.0
2014-Apr-07 21:32N 37°51' E 024°30'1914.9
2014-Apr-07 20:15N 37°39' E 024°11'1014.2
2014-Apr-07 19:33N 37°36' E 023°60'2613.2
2014-Apr-07 17:33N 37°55' E 023°37'  

Dump ship's entire track history

sailing weather and tide predictions

Modern Chance — ELXJ7 — position and weather